sensor_id;sensor_type;location;lat;lon;timestamp;noise_LAeq;noise_LA_min;noise_LA_max;noise_LA01;noise_LA95
69619;Laerm;57653;51.434;5.984;2022-07-22T00:00:04;36.31;34.72;38.28;;
69619;Laerm;57653;51.434;5.984;2022-07-22T00:00:15;36.20;35.04;37.36;;
69619;Laerm;57653;51.434;5.984;2022-07-22T00:00:25;36.25;35.00;37.36;;
69619;Laerm;57653;51.434;5.984;2022-07-22T00:00:36;36.72;34.90;38.64;;
69619;Laerm;57653;51.434;5.984;2022-07-22T00:00:46;36.86;35.27;39.99;;
69619;Laerm;57653;51.434;5.984;2022-07-22T00:00:56;37.71;36.20;39.59;;
69619;Laerm;57653;51.434;5.984;2022-07-22T00:01:07;37.98;35.79;39.65;;
69619;Laerm;57653;51.434;5.984;2022-07-22T00:01:17;40.86;36.88;44.33;;
69619;Laerm;57653;51.434;5.984;2022-07-22T00:01:27;47.40;40.20;54.83;;
69619;Laerm;57653;51.434;5.984;2022-07-22T00:01:37;52.97;46.37;58.91;;
69619;Laerm;57653;51.434;5.984;2022-07-22T00:01:50;50.12;42.41;55.53;;
69619;Laerm;57653;51.434;5.984;2022-07-22T00:02:00;44.06;36.83;52.98;;
69619;Laerm;57653;51.434;5.984;2022-07-22T00:02:10;38.14;35.53;43.26;;
69619;Laerm;57653;51.434;5.984;2022-07-22T00:02:21;37.06;35.27;40.11;;
69619;Laerm;57653;51.434;5.984;2022-07-22T00:02:32;36.32;34.77;37.70;;
69619;Laerm;57653;51.434;5.984;2022-07-22T00:02:42;36.02;34.43;37.29;;
69619;Laerm;57653;51.434;5.984;2022-07-22T00:02:53;36.01;34.40;37.38;;
69619;Laerm;57653;51.434;5.984;2022-07-22T00:03:03;35.97;34.57;37.28;;
69619;Laerm;57653;51.434;5.984;2022-07-22T00:03:13;36.16;34.94;37.60;;
69619;Laerm;57653;51.434;5.984;2022-07-22T00:03:24;36.38;35.04;38.23;;
69619;Laerm;57653;51.434;5.984;2022-07-22T00:03:34;36.44;35.14;38.02;;
69619;Laerm;57653;51.434;5.984;2022-07-22T00:03:44;36.45;34.81;37.85;;
69619;Laerm;57653;51.434;5.984;2022-07-22T00:03:54;36.48;34.99;38.06;;
69619;Laerm;57653;51.434;5.984;2022-07-22T00:04:09;36.22;35.04;37.59;;
69619;Laerm;57653;51.434;5.984;2022-07-22T00:04:19;36.27;34.92;37.49;;
69619;Laerm;57653;51.434;5.984;2022-07-22T00:04:29;36.44;34.80;37.73;;
69619;Laerm;57653;51.434;5.984;2022-07-22T00:04:40;36.48;35.17;37.74;;
69619;Laerm;57653;51.434;5.984;2022-07-22T00:04:50;36.33;34.96;37.42;;
69619;Laerm;57653;51.434;5.984;2022-07-22T00:05:02;36.30;35.05;37.60;;
69619;Laerm;57653;51.434;5.984;2022-07-22T00:05:12;36.10;34.66;37.87;;
69619;Laerm;57653;51.434;5.984;2022-07-22T00:05:22;36.06;34.75;37.02;;
69619;Laerm;57653;51.434;5.984;2022-07-22T00:05:33;36.12;34.76;37.25;;
69619;Laerm;57653;51.434;5.984;2022-07-22T00:05:43;36.23;34.87;37.52;;
69619;Laerm;57653;51.434;5.984;2022-07-22T00:05:58;36.21;34.93;37.33;;
69619;Laerm;57653;51.434;5.984;2022-07-22T00:06:09;36.57;34.66;40.45;;
69619;Laerm;57653;51.434;5.984;2022-07-22T00:06:19;36.49;34.97;38.70;;
69619;Laerm;57653;51.434;5.984;2022-07-22T00:06:29;36.59;35.02;38.42;;
69619;Laerm;57653;51.434;5.984;2022-07-22T00:06:40;36.40;35.05;38.23;;
69619;Laerm;57653;51.434;5.984;2022-07-22T00:06:50;36.40;34.91;38.48;;
69619;Laerm;57653;51.434;5.984;2022-07-22T00:07:01;36.47;34.42;39.03;;
69619;Laerm;57653;51.434;5.984;2022-07-22T00:07:11;36.57;34.63;38.85;;
69619;Laerm;57653;51.434;5.984;2022-07-22T00:07:21;36.12;34.70;37.83;;
69619;Laerm;57653;51.434;5.984;2022-07-22T00:07:32;36.45;34.82;38.83;;
69619;Laerm;57653;51.434;5.984;2022-07-22T00:07:44;36.61;34.89;38.22;;
69619;Laerm;57653;51.434;5.984;2022-07-22T00:07:54;36.16;34.63;38.12;;
69619;Laerm;57653;51.434;5.984;2022-07-22T00:08:04;36.44;35.00;37.89;;
69619;Laerm;57653;51.434;5.984;2022-07-22T00:08:15;36.37;34.88;38.16;;
69619;Laerm;57653;51.434;5.984;2022-07-22T00:08:25;36.08;34.69;37.43;;
69619;Laerm;57653;51.434;5.984;2022-07-22T00:08:36;37.08;35.26;38.97;;
69619;Laerm;57653;51.434;5.984;2022-07-22T00:08:47;36.74;34.87;39.00;;
69619;Laerm;57653;51.434;5.984;2022-07-22T00:08:57;36.50;34.83;37.84;;
69619;Laerm;57653;51.434;5.984;2022-07-22T00:09:07;36.33;34.89;38.09;;
69619;Laerm;57653;51.434;5.984;2022-07-22T00:09:18;36.28;34.72;38.48;;
69619;Laerm;57653;51.434;5.984;2022-07-22T00:09:28;36.24;34.74;37.68;;
69619;Laerm;57653;51.434;5.984;2022-07-22T00:09:39;36.35;34.84;38.63;;
69619;Laerm;57653;51.434;5.984;2022-07-22T00:09:49;36.16;34.51;37.65;;
69619;Laerm;57653;51.434;5.984;2022-07-22T00:10:00;36.43;34.60;37.73;;
69619;Laerm;57653;51.434;5.984;2022-07-22T00:10:10;36.41;35.26;37.52;;
69619;Laerm;57653;51.434;5.984;2022-07-22T00:10:20;36.24;34.75;37.68;;
69619;Laerm;57653;51.434;5.984;2022-07-22T00:10:31;35.90;34.10;37.01;;
69619;Laerm;57653;51.434;5.984;2022-07-22T00:10:41;36.05;34.79;40.44;;
69619;Laerm;57653;51.434;5.984;2022-07-22T00:10:51;36.21;34.89;37.36;;
69619;Laerm;57653;51.434;5.984;2022-07-22T00:11:02;36.21;34.90;38.10;;
69619;Laerm;57653;51.434;5.984;2022-07-22T00:11:12;36.18;34.86;37.45;;
69619;Laerm;57653;51.434;5.984;2022-07-22T00:11:23;36.02;34.93;37.32;;
69619;Laerm;57653;51.434;5.984;2022-07-22T00:11:33;35.97;34.82;37.50;;
69619;Laerm;57653;51.434;5.984;2022-07-22T00:11:43;36.21;35.18;37.73;;
69619;Laerm;57653;51.434;5.984;2022-07-22T00:11:53;36.79;35.24;40.46;;
69619;Laerm;57653;51.434;5.984;2022-07-22T00:12:04;36.16;34.96;37.65;;
69619;Laerm;57653;51.434;5.984;2022-07-22T00:12:14;36.34;34.65;38.17;;
69619;Laerm;57653;51.434;5.984;2022-07-22T00:12:25;36.20;34.79;37.55;;
69619;Laerm;57653;51.434;5.984;2022-07-22T00:12:35;36.15;34.68;37.38;;
69619;Laerm;57653;51.434;5.984;2022-07-22T00:12:45;36.20;34.69;37.70;;
69619;Laerm;57653;51.434;5.984;2022-07-22T00:12:56;36.45;34.65;39.71;;
69619;Laerm;57653;51.434;5.984;2022-07-22T00:13:06;36.50;34.64;38.36;;
69619;Laerm;57653;51.434;5.984;2022-07-22T00:13:16;36.67;35.10;39.02;;
69619;Laerm;57653;51.434;5.984;2022-07-22T00:13:27;36.50;34.69;38.81;;
69619;Laerm;57653;51.434;5.984;2022-07-22T00:13:37;36.53;34.88;39.40;;
69619;Laerm;57653;51.434;5.984;2022-07-22T00:13:47;36.37;33.98;38.00;;
69619;Laerm;57653;51.434;5.984;2022-07-22T00:13:57;36.65;35.25;39.21;;
69619;Laerm;57653;51.434;5.984;2022-07-22T00:14:08;36.57;35.14;38.54;;
69619;Laerm;57653;51.434;5.984;2022-07-22T00:14:18;36.53;35.09;37.68;;
69619;Laerm;57653;51.434;5.984;2022-07-22T00:14:28;36.83;35.03;39.14;;
69619;Laerm;57653;51.434;5.984;2022-07-22T00:14:39;36.80;35.12;48.55;;
69619;Laerm;57653;51.434;5.984;2022-07-22T00:14:49;36.81;35.12;39.18;;
69619;Laerm;57653;51.434;5.984;2022-07-22T00:14:59;36.83;34.83;39.62;;
69619;Laerm;57653;51.434;5.984;2022-07-22T00:15:10;36.55;35.05;38.22;;
69619;Laerm;57653;51.434;5.984;2022-07-22T00:15:21;36.94;35.35;39.00;;
69619;Laerm;57653;51.434;5.984;2022-07-22T00:15:31;36.61;35.14;38.36;;
69619;Laerm;57653;51.434;5.984;2022-07-22T00:15:41;36.49;34.58;38.73;;
69619;Laerm;57653;51.434;5.984;2022-07-22T00:15:52;36.80;34.93;50.49;;
69619;Laerm;57653;51.434;5.984;2022-07-22T00:16:02;36.41;34.76;37.82;;
69619;Laerm;57653;51.434;5.984;2022-07-22T00:16:13;36.63;34.85;38.58;;
69619;Laerm;57653;51.434;5.984;2022-07-22T00:16:23;36.65;35.15;38.39;;
69619;Laerm;57653;51.434;5.984;2022-07-22T00:16:33;36.71;34.98;38.56;;
69619;Laerm;57653;51.434;5.984;2022-07-22T00:16:44;36.66;35.32;38.25;;
69619;Laerm;57653;51.434;5.984;2022-07-22T00:16:56;36.54;35.26;38.33;;
69619;Laerm;57653;51.434;5.984;2022-07-22T00:17:06;36.44;34.85;38.36;;
69619;Laerm;57653;51.434;5.984;2022-07-22T00:17:17;36.37;34.66;37.85;;
69619;Laerm;57653;51.434;5.984;2022-07-22T00:17:34;36.14;34.48;37.50;;
69619;Laerm;57653;51.434;5.984;2022-07-22T00:17:46;36.30;35.11;37.61;;
69619;Laerm;57653;51.434;5.984;2022-07-22T00:17:57;36.23;35.13;37.52;;
69619;Laerm;57653;51.434;5.984;2022-07-22T00:18:08;36.30;34.91;37.50;;
69619;Laerm;57653;51.434;5.984;2022-07-22T00:18:18;36.22;35.06;37.48;;
69619;Laerm;57653;51.434;5.984;2022-07-22T00:18:28;36.16;34.69;37.46;;
69619;Laerm;57653;51.434;5.984;2022-07-22T00:18:39;36.20;34.91;38.07;;
69619;Laerm;57653;51.434;5.984;2022-07-22T00:18:50;36.52;35.17;38.85;;
69619;Laerm;57653;51.434;5.984;2022-07-22T00:19:00;36.30;34.99;37.97;;
69619;Laerm;57653;51.434;5.984;2022-07-22T00:19:10;36.26;35.04;37.57;;
69619;Laerm;57653;51.434;5.984;2022-07-22T00:19:20;36.65;35.04;39.13;;
69619;Laerm;57653;51.434;5.984;2022-07-22T00:19:32;36.96;35.52;38.54;;
69619;Laerm;57653;51.434;5.984;2022-07-22T00:19:42;37.01;35.18;39.55;;
69619;Laerm;57653;51.434;5.984;2022-07-22T00:19:52;36.96;35.42;38.84;;
69619;Laerm;57653;51.434;5.984;2022-07-22T00:20:04;36.13;34.87;37.49;;
69619;Laerm;57653;51.434;5.984;2022-07-22T00:20:15;36.58;35.11;38.87;;
69619;Laerm;57653;51.434;5.984;2022-07-22T00:20:25;36.30;34.94;37.44;;
69619;Laerm;57653;51.434;5.984;2022-07-22T00:20:35;36.27;34.67;37.83;;
69619;Laerm;57653;51.434;5.984;2022-07-22T00:20:46;36.17;34.88;37.49;;
69619;Laerm;57653;51.434;5.984;2022-07-22T00:21:00;36.16;34.68;37.64;;
69619;Laerm;57653;51.434;5.984;2022-07-22T00:21:10;36.48;35.03;38.79;;
69619;Laerm;57653;51.434;5.984;2022-07-22T00:21:21;36.38;35.02;37.90;;
69619;Laerm;57653;51.434;5.984;2022-07-22T00:21:31;36.60;35.24;38.01;;
69619;Laerm;57653;51.434;5.984;2022-07-22T00:21:42;36.34;35.25;37.79;;
69619;Laerm;57653;51.434;5.984;2022-07-22T00:21:52;36.52;35.20;37.87;;
69619;Laerm;57653;51.434;5.984;2022-07-22T00:22:03;36.52;35.17;37.90;;
69619;Laerm;57653;51.434;5.984;2022-07-22T00:22:13;36.44;34.58;37.94;;
69619;Laerm;57653;51.434;5.984;2022-07-22T00:22:25;36.64;35.13;39.07;;
69619;Laerm;57653;51.434;5.984;2022-07-22T00:22:35;37.00;35.29;39.06;;
69619;Laerm;57653;51.434;5.984;2022-07-22T00:22:45;36.72;35.13;39.22;;
69619;Laerm;57653;51.434;5.984;2022-07-22T00:22:56;37.19;35.54;40.09;;
69619;Laerm;57653;51.434;5.984;2022-07-22T00:23:06;36.91;34.66;38.38;;
69619;Laerm;57653;51.434;5.984;2022-07-22T00:23:16;37.12;35.53;38.94;;
69619;Laerm;57653;51.434;5.984;2022-07-22T00:23:27;37.42;35.92;40.40;;
69619;Laerm;57653;51.434;5.984;2022-07-22T00:23:37;36.81;35.40;38.43;;
69619;Laerm;57653;51.434;5.984;2022-07-22T00:23:48;36.71;35.38;38.26;;
69619;Laerm;57653;51.434;5.984;2022-07-22T00:23:58;36.96;35.47;39.00;;
69619;Laerm;57653;51.434;5.984;2022-07-22T00:24:09;36.94;35.35;38.55;;
69619;Laerm;57653;51.434;5.984;2022-07-22T00:24:20;36.45;35.12;39.27;;
69619;Laerm;57653;51.434;5.984;2022-07-22T00:24:30;36.95;35.43;38.54;;
69619;Laerm;57653;51.434;5.984;2022-07-22T00:24:40;36.98;34.87;38.62;;
69619;Laerm;57653;51.434;5.984;2022-07-22T00:24:51;36.58;34.96;38.51;;
69619;Laerm;57653;51.434;5.984;2022-07-22T00:25:01;36.91;35.44;38.75;;
69619;Laerm;57653;51.434;5.984;2022-07-22T00:25:12;36.43;35.25;37.78;;
69619;Laerm;57653;51.434;5.984;2022-07-22T00:25:23;36.59;34.77;38.23;;
69619;Laerm;57653;51.434;5.984;2022-07-22T00:25:33;36.87;35.15;38.95;;
69619;Laerm;57653;51.434;5.984;2022-07-22T00:25:44;36.80;35.29;39.20;;
69619;Laerm;57653;51.434;5.984;2022-07-22T00:25:54;36.81;35.25;38.24;;
69619;Laerm;57653;51.434;5.984;2022-07-22T00:26:04;36.81;35.26;39.04;;
69619;Laerm;57653;51.434;5.984;2022-07-22T00:26:14;36.58;34.89;37.98;;
69619;Laerm;57653;51.434;5.984;2022-07-22T00:26:25;36.72;35.24;38.83;;
69619;Laerm;57653;51.434;5.984;2022-07-22T00:26:49;36.51;35.16;37.68;;
69619;Laerm;57653;51.434;5.984;2022-07-22T00:26:59;37.42;34.89;48.87;;
69619;Laerm;57653;51.434;5.984;2022-07-22T00:27:10;37.17;35.20;47.37;;
69619;Laerm;57653;51.434;5.984;2022-07-22T00:27:20;36.72;35.24;38.71;;
69619;Laerm;57653;51.434;5.984;2022-07-22T00:27:30;37.23;35.27;43.69;;
69619;Laerm;57653;51.434;5.984;2022-07-22T00:27:41;37.07;34.95;42.98;;
69619;Laerm;57653;51.434;5.984;2022-07-22T00:27:51;36.45;35.22;40.03;;
69619;Laerm;57653;51.434;5.984;2022-07-22T00:28:01;36.21;34.82;37.86;;
69619;Laerm;57653;51.434;5.984;2022-07-22T00:28:11;36.24;34.45;37.57;;
69619;Laerm;57653;51.434;5.984;2022-07-22T00:28:22;36.27;34.95;39.18;;
69619;Laerm;57653;51.434;5.984;2022-07-22T00:28:32;36.30;35.27;37.50;;
69619;Laerm;57653;51.434;5.984;2022-07-22T00:28:44;36.33;34.91;37.76;;
69619;Laerm;57653;51.434;5.984;2022-07-22T00:28:55;36.40;34.65;37.79;;
69619;Laerm;57653;51.434;5.984;2022-07-22T00:29:05;36.39;35.15;37.63;;
69619;Laerm;57653;51.434;5.984;2022-07-22T00:29:15;36.31;34.99;37.81;;
69619;Laerm;57653;51.434;5.984;2022-07-22T00:29:25;36.26;35.03;37.57;;
69619;Laerm;57653;51.434;5.984;2022-07-22T00:29:36;36.33;34.87;38.05;;
69619;Laerm;57653;51.434;5.984;2022-07-22T00:29:46;36.24;35.02;37.35;;
69619;Laerm;57653;51.434;5.984;2022-07-22T00:29:56;36.24;34.64;37.46;;
69619;Laerm;57653;51.434;5.984;2022-07-22T00:30:07;36.25;35.01;37.70;;
69619;Laerm;57653;51.434;5.984;2022-07-22T00:30:19;36.23;35.05;37.66;;
69619;Laerm;57653;51.434;5.984;2022-07-22T00:30:29;36.31;35.12;37.60;;
69619;Laerm;57653;51.434;5.984;2022-07-22T00:30:39;36.44;35.19;38.29;;
69619;Laerm;57653;51.434;5.984;2022-07-22T00:30:51;36.58;35.21;39.46;;
69619;Laerm;57653;51.434;5.984;2022-07-22T00:31:01;37.02;35.05;41.97;;
69619;Laerm;57653;51.434;5.984;2022-07-22T00:31:12;38.62;35.85;41.67;;
69619;Laerm;57653;51.434;5.984;2022-07-22T00:31:22;38.42;36.22;47.39;;
69619;Laerm;57653;51.434;5.984;2022-07-22T00:31:32;37.20;35.25;39.21;;
69619;Laerm;57653;51.434;5.984;2022-07-22T00:31:43;36.69;35.17;38.19;;
69619;Laerm;57653;51.434;5.984;2022-07-22T00:31:59;37.65;35.65;40.33;;
69619;Laerm;57653;51.434;5.984;2022-07-22T00:32:09;37.82;35.66;40.14;;
69619;Laerm;57653;51.434;5.984;2022-07-22T00:32:19;37.81;35.93;40.81;;
69619;Laerm;57653;51.434;5.984;2022-07-22T00:32:30;37.99;36.08;41.12;;
69619;Laerm;57653;51.434;5.984;2022-07-22T00:32:40;37.26;35.39;44.17;;
69619;Laerm;57653;51.434;5.984;2022-07-22T00:32:50;37.05;35.41;39.09;;
69619;Laerm;57653;51.434;5.984;2022-07-22T00:33:01;36.67;35.09;38.65;;
69619;Laerm;57653;51.434;5.984;2022-07-22T00:33:11;36.62;35.12;38.29;;
69619;Laerm;57653;51.434;5.984;2022-07-22T00:33:21;36.40;35.01;37.89;;
69619;Laerm;57653;51.434;5.984;2022-07-22T00:33:31;36.33;34.81;38.02;;
69619;Laerm;57653;51.434;5.984;2022-07-22T00:33:42;36.45;35.41;37.80;;
69619;Laerm;57653;51.434;5.984;2022-07-22T00:33:52;36.59;35.06;37.77;;
69619;Laerm;57653;51.434;5.984;2022-07-22T00:34:02;36.70;35.23;38.30;;
69619;Laerm;57653;51.434;5.984;2022-07-22T00:34:13;36.56;35.25;38.07;;
69619;Laerm;57653;51.434;5.984;2022-07-22T00:34:23;37.05;35.29;40.38;;
69619;Laerm;57653;51.434;5.984;2022-07-22T00:34:35;37.27;35.29;39.89;;
69619;Laerm;57653;51.434;5.984;2022-07-22T00:34:46;37.18;35.51;39.56;;
69619;Laerm;57653;51.434;5.984;2022-07-22T00:34:56;38.25;35.78;40.67;;
69619;Laerm;57653;51.434;5.984;2022-07-22T00:35:06;37.41;35.63;39.49;;
69619;Laerm;57653;51.434;5.984;2022-07-22T00:35:19;37.12;35.63;40.18;;
69619;Laerm;57653;51.434;5.984;2022-07-22T00:35:29;37.00;35.02;39.91;;
69619;Laerm;57653;51.434;5.984;2022-07-22T00:35:39;36.91;35.33;38.93;;
69619;Laerm;57653;51.434;5.984;2022-07-22T00:35:50;37.09;35.59;39.57;;
69619;Laerm;57653;51.434;5.984;2022-07-22T00:36:01;36.76;34.69;38.81;;
69619;Laerm;57653;51.434;5.984;2022-07-22T00:36:12;36.93;34.79;39.02;;
69619;Laerm;57653;51.434;5.984;2022-07-22T00:36:22;37.18;35.62;40.22;;
69619;Laerm;57653;51.434;5.984;2022-07-22T00:36:32;37.54;35.51;39.90;;
69619;Laerm;57653;51.434;5.984;2022-07-22T00:36:45;37.52;35.71;41.40;;
69619;Laerm;57653;51.434;5.984;2022-07-22T00:36:55;37.30;35.25;39.98;;
69619;Laerm;57653;51.434;5.984;2022-07-22T00:37:05;37.07;35.54;39.22;;
69619;Laerm;57653;51.434;5.984;2022-07-22T00:37:16;36.86;35.60;38.56;;
69619;Laerm;57653;51.434;5.984;2022-07-22T00:37:32;37.15;35.33;39.58;;
69619;Laerm;57653;51.434;5.984;2022-07-22T00:37:42;36.67;35.04;38.81;;
69619;Laerm;57653;51.434;5.984;2022-07-22T00:37:53;37.00;35.53;39.14;;
69619;Laerm;57653;51.434;5.984;2022-07-22T00:38:03;36.83;34.85;38.57;;
69619;Laerm;57653;51.434;5.984;2022-07-22T00:38:14;36.65;34.72;38.07;;
69619;Laerm;57653;51.434;5.984;2022-07-22T00:38:25;36.55;34.92;38.19;;
69619;Laerm;57653;51.434;5.984;2022-07-22T00:38:35;36.66;35.01;38.72;;
69619;Laerm;57653;51.434;5.984;2022-07-22T00:38:45;36.85;35.12;38.59;;
69619;Laerm;57653;51.434;5.984;2022-07-22T00:38:57;36.72;35.04;39.10;;
69619;Laerm;57653;51.434;5.984;2022-07-22T00:39:08;37.29;35.14;40.37;;
69619;Laerm;57653;51.434;5.984;2022-07-22T00:39:19;37.09;35.31;40.17;;
69619;Laerm;57653;51.434;5.984;2022-07-22T00:39:31;36.89;34.74;39.56;;
69619;Laerm;57653;51.434;5.984;2022-07-22T00:39:42;36.86;35.43;39.25;;
69619;Laerm;57653;51.434;5.984;2022-07-22T00:39:52;37.01;35.40;39.17;;
69619;Laerm;57653;51.434;5.984;2022-07-22T00:40:02;38.21;35.69;40.85;;
69619;Laerm;57653;51.434;5.984;2022-07-22T00:40:13;42.09;36.88;48.81;;
69619;Laerm;57653;51.434;5.984;2022-07-22T00:40:24;47.92;39.05;54.97;;
69619;Laerm;57653;51.434;5.984;2022-07-22T00:40:34;53.98;44.96;62.04;;
69619;Laerm;57653;51.434;5.984;2022-07-22T00:40:44;53.96;46.28;62.09;;
69619;Laerm;57653;51.434;5.984;2022-07-22T00:40:56;47.35;38.37;58.25;;
69619;Laerm;57653;51.434;5.984;2022-07-22T00:41:07;41.07;36.92;46.40;;
69619;Laerm;57653;51.434;5.984;2022-07-22T00:41:17;39.97;36.31;46.04;;
69619;Laerm;57653;51.434;5.984;2022-07-22T00:41:27;37.31;35.43;39.36;;
69619;Laerm;57653;51.434;5.984;2022-07-22T00:41:51;36.57;35.12;38.26;;
69619;Laerm;57653;51.434;5.984;2022-07-22T00:42:01;36.67;35.09;38.07;;
69619;Laerm;57653;51.434;5.984;2022-07-22T00:42:12;36.46;34.92;38.01;;
69619;Laerm;57653;51.434;5.984;2022-07-22T00:42:22;36.24;34.54;37.86;;
69619;Laerm;57653;51.434;5.984;2022-07-22T00:42:32;36.24;34.55;37.22;;
69619;Laerm;57653;51.434;5.984;2022-07-22T00:42:44;36.65;35.21;38.99;;
69619;Laerm;57653;51.434;5.984;2022-07-22T00:42:54;36.38;35.09;37.95;;
69619;Laerm;57653;51.434;5.984;2022-07-22T00:43:05;36.88;35.17;39.35;;
69619;Laerm;57653;51.434;5.984;2022-07-22T00:43:15;36.90;35.37;38.85;;
69619;Laerm;57653;51.434;5.984;2022-07-22T00:43:25;36.64;35.28;38.36;;
69619;Laerm;57653;51.434;5.984;2022-07-22T00:43:48;36.30;34.84;38.03;;
69619;Laerm;57653;51.434;5.984;2022-07-22T00:44:05;36.51;34.86;39.37;;
69619;Laerm;57653;51.434;5.984;2022-07-22T00:44:16;36.63;35.16;38.89;;
69619;Laerm;57653;51.434;5.984;2022-07-22T00:44:26;36.80;35.24;38.76;;
69619;Laerm;57653;51.434;5.984;2022-07-22T00:44:37;37.48;35.50;40.47;;
69619;Laerm;57653;51.434;5.984;2022-07-22T00:44:47;37.11;35.52;38.57;;
69619;Laerm;57653;51.434;5.984;2022-07-22T00:45:18;36.89;34.97;38.89;;
69619;Laerm;57653;51.434;5.984;2022-07-22T00:45:28;36.89;35.26;38.74;;
69619;Laerm;57653;51.434;5.984;2022-07-22T00:45:39;37.13;35.10;39.09;;
69619;Laerm;57653;51.434;5.984;2022-07-22T00:45:49;36.91;35.17;39.07;;
69619;Laerm;57653;51.434;5.984;2022-07-22T00:46:01;37.35;35.50;39.39;;
69619;Laerm;57653;51.434;5.984;2022-07-22T00:46:12;37.14;35.35;38.95;;
69619;Laerm;57653;51.434;5.984;2022-07-22T00:46:22;37.11;35.23;45.60;;
69619;Laerm;57653;51.434;5.984;2022-07-22T00:46:33;36.94;35.09;42.58;;
69619;Laerm;57653;51.434;5.984;2022-07-22T00:46:44;37.08;35.17;39.10;;
69619;Laerm;57653;51.434;5.984;2022-07-22T00:46:54;37.25;35.53;39.12;;
69619;Laerm;57653;51.434;5.984;2022-07-22T00:47:05;37.06;35.51;39.96;;
69619;Laerm;57653;51.434;5.984;2022-07-22T00:47:15;36.92;35.35;38.25;;
69619;Laerm;57653;51.434;5.984;2022-07-22T00:47:25;36.73;35.27;38.80;;
69619;Laerm;57653;51.434;5.984;2022-07-22T00:47:36;36.64;34.84;39.30;;
69619;Laerm;57653;51.434;5.984;2022-07-22T00:47:46;36.98;35.11;39.91;;
69619;Laerm;57653;51.434;5.984;2022-07-22T00:47:56;36.87;34.62;40.35;;
69619;Laerm;57653;51.434;5.984;2022-07-22T00:48:07;37.54;35.44;41.38;;
69619;Laerm;57653;51.434;5.984;2022-07-22T00:48:17;36.83;35.00;38.39;;
69619;Laerm;57653;51.434;5.984;2022-07-22T00:48:27;36.65;35.13;39.28;;
69619;Laerm;57653;51.434;5.984;2022-07-22T00:48:37;36.53;34.96;38.08;;
69619;Laerm;57653;51.434;5.984;2022-07-22T00:48:48;36.95;35.20;39.69;;
69619;Laerm;57653;51.434;5.984;2022-07-22T00:48:58;36.78;34.87;38.36;;
69619;Laerm;57653;51.434;5.984;2022-07-22T00:49:08;37.56;35.56;40.11;;
69619;Laerm;57653;51.434;5.984;2022-07-22T00:49:19;37.21;35.59;40.22;;
69619;Laerm;57653;51.434;5.984;2022-07-22T00:49:29;40.98;36.04;49.68;;
69619;Laerm;57653;51.434;5.984;2022-07-22T00:49:40;53.00;45.22;57.35;;
69619;Laerm;57653;51.434;5.984;2022-07-22T00:49:50;40.03;35.57;48.47;;
69619;Laerm;57653;51.434;5.984;2022-07-22T00:50:00;36.96;35.37;38.75;;
69619;Laerm;57653;51.434;5.984;2022-07-22T00:50:11;36.94;35.36;38.66;;
69619;Laerm;57653;51.434;5.984;2022-07-22T00:50:21;36.65;35.01;38.13;;
69619;Laerm;57653;51.434;5.984;2022-07-22T00:50:33;36.49;35.09;38.18;;
69619;Laerm;57653;51.434;5.984;2022-07-22T00:50:44;36.55;35.04;39.34;;
69619;Laerm;57653;51.434;5.984;2022-07-22T00:50:54;36.88;35.07;39.15;;
69619;Laerm;57653;51.434;5.984;2022-07-22T00:51:05;37.11;34.95;39.45;;
69619;Laerm;57653;51.434;5.984;2022-07-22T00:51:16;37.17;35.50;39.32;;
69619;Laerm;57653;51.434;5.984;2022-07-22T00:51:31;37.28;35.43;39.33;;
69619;Laerm;57653;51.434;5.984;2022-07-22T00:51:42;37.38;34.94;39.96;;
69619;Laerm;57653;51.434;5.984;2022-07-22T00:51:52;36.51;34.73;38.07;;
69619;Laerm;57653;51.434;5.984;2022-07-22T00:52:03;36.23;34.96;37.46;;
69619;Laerm;57653;51.434;5.984;2022-07-22T00:52:15;36.20;35.02;37.56;;
69619;Laerm;57653;51.434;5.984;2022-07-22T00:52:25;36.73;35.26;39.15;;
69619;Laerm;57653;51.434;5.984;2022-07-22T00:52:36;37.20;35.30;39.89;;
69619;Laerm;57653;51.434;5.984;2022-07-22T00:52:46;37.30;35.18;40.58;;
69619;Laerm;57653;51.434;5.984;2022-07-22T00:52:57;36.76;34.82;39.26;;
69619;Laerm;57653;51.434;5.984;2022-07-22T00:53:07;37.25;35.56;40.03;;
69619;Laerm;57653;51.434;5.984;2022-07-22T00:53:18;36.65;35.21;39.38;;
69619;Laerm;57653;51.434;5.984;2022-07-22T00:53:28;37.32;35.47;39.85;;
69619;Laerm;57653;51.434;5.984;2022-07-22T00:53:39;36.47;34.97;37.80;;
69619;Laerm;57653;51.434;5.984;2022-07-22T00:53:50;36.48;35.17;38.21;;
69619;Laerm;57653;51.434;5.984;2022-07-22T00:54:01;36.40;35.10;37.86;;
69619;Laerm;57653;51.434;5.984;2022-07-22T00:54:13;36.94;35.50;39.07;;
69619;Laerm;57653;51.434;5.984;2022-07-22T00:54:24;36.86;35.34;40.91;;
69619;Laerm;57653;51.434;5.984;2022-07-22T00:54:35;37.42;35.14;41.31;;
69619;Laerm;57653;51.434;5.984;2022-07-22T00:54:46;38.08;35.84;41.20;;
69619;Laerm;57653;51.434;5.984;2022-07-22T00:54:58;36.91;35.49;39.21;;
69619;Laerm;57653;51.434;5.984;2022-07-22T00:55:09;37.39;35.15;40.77;;
69619;Laerm;57653;51.434;5.984;2022-07-22T00:55:19;37.50;35.48;41.90;;
69619;Laerm;57653;51.434;5.984;2022-07-22T00:55:29;37.15;35.35;40.72;;
69619;Laerm;57653;51.434;5.984;2022-07-22T00:55:40;37.60;35.78;40.51;;
69619;Laerm;57653;51.434;5.984;2022-07-22T00:55:51;37.96;35.14;41.35;;
69619;Laerm;57653;51.434;5.984;2022-07-22T00:56:02;37.43;35.23;40.15;;
69619;Laerm;57653;51.434;5.984;2022-07-22T00:56:13;39.82;35.40;49.59;;
69619;Laerm;57653;51.434;5.984;2022-07-22T00:56:24;38.78;35.71;43.54;;
69619;Laerm;57653;51.434;5.984;2022-07-22T00:56:35;38.19;35.21;41.19;;
69619;Laerm;57653;51.434;5.984;2022-07-22T00:56:47;37.43;35.67;41.80;;
69619;Laerm;57653;51.434;5.984;2022-07-22T00:56:57;37.54;35.10;40.99;;
69619;Laerm;57653;51.434;5.984;2022-07-22T00:57:07;37.10;35.36;40.08;;
69619;Laerm;57653;51.434;5.984;2022-07-22T00:57:18;37.31;35.61;40.15;;
69619;Laerm;57653;51.434;5.984;2022-07-22T00:57:29;37.75;34.95;40.66;;
69619;Laerm;57653;51.434;5.984;2022-07-22T00:57:40;37.39;35.42;40.27;;
69619;Laerm;57653;51.434;5.984;2022-07-22T00:57:50;37.13;35.10;38.91;;
69619;Laerm;57653;51.434;5.984;2022-07-22T00:58:01;37.18;35.38;40.23;;
69619;Laerm;57653;51.434;5.984;2022-07-22T00:58:11;37.46;35.15;39.57;;
69619;Laerm;57653;51.434;5.984;2022-07-22T00:58:22;38.03;36.16;40.83;;
69619;Laerm;57653;51.434;5.984;2022-07-22T00:58:32;37.29;35.73;39.44;;
69619;Laerm;57653;51.434;5.984;2022-07-22T00:58:43;37.75;35.67;40.89;;
69619;Laerm;57653;51.434;5.984;2022-07-22T00:58:54;37.40;35.62;40.25;;
69619;Laerm;57653;51.434;5.984;2022-07-22T00:59:07;37.15;35.29;40.25;;
69619;Laerm;57653;51.434;5.984;2022-07-22T00:59:19;37.55;35.51;39.57;;
69619;Laerm;57653;51.434;5.984;2022-07-22T00:59:30;37.42;35.81;39.08;;
69619;Laerm;57653;51.434;5.984;2022-07-22T00:59:40;37.53;35.77;40.21;;
69619;Laerm;57653;51.434;5.984;2022-07-22T00:59:51;38.19;35.87;41.61;;
69619;Laerm;57653;51.434;5.984;2022-07-22T01:00:01;38.12;36.15;41.71;;
69619;Laerm;57653;51.434;5.984;2022-07-22T01:00:15;38.14;35.23;41.23;;
69619;Laerm;57653;51.434;5.984;2022-07-22T01:00:26;37.83;34.75;40.84;;
69619;Laerm;57653;51.434;5.984;2022-07-22T01:00:37;37.68;35.63;40.47;;
69619;Laerm;57653;51.434;5.984;2022-07-22T01:00:47;37.40;35.36;40.71;;